sensor_id;sensor_type;location;lat;lon;timestamp;P1;durP1;ratioP1;P2;durP2;ratioP2
11827;SDS011;5971;49.646;8.568;2023-09-19T00:00:33;3.20;;;2.15;;
11827;SDS011;5971;49.646;8.568;2023-09-19T00:03:35;4.45;;;2.22;;
11827;SDS011;5971;49.646;8.568;2023-09-19T00:06:40;3.08;;;1.80;;
11827;SDS011;5971;49.646;8.568;2023-09-19T00:09:42;4.75;;;1.75;;
11827;SDS011;5971;49.646;8.568;2023-09-19T00:12:46;4.22;;;2.55;;
11827;SDS011;5971;49.646;8.568;2023-09-19T00:15:52;6.38;;;1.98;;
11827;SDS011;5971;49.646;8.568;2023-09-19T00:18:56;4.50;;;2.97;;
11827;SDS011;5971;49.646;8.568;2023-09-19T00:21:57;4.68;;;2.55;;
11827;SDS011;5971;49.646;8.568;2023-09-19T00:24:59;5.18;;;1.77;;
11827;SDS011;5971;49.646;8.568;2023-09-19T00:28:02;4.18;;;1.90;;
11827;SDS011;5971;49.646;8.568;2023-09-19T00:31:03;6.40;;;3.25;;
11827;SDS011;5971;49.646;8.568;2023-09-19T00:34:06;3.47;;;1.60;;
11827;SDS011;5971;49.646;8.568;2023-09-19T00:37:11;7.10;;;2.70;;
11827;SDS011;5971;49.646;8.568;2023-09-19T00:40:12;6.38;;;1.65;;
11827;SDS011;5971;49.646;8.568;2023-09-19T00:43:14;2.70;;;1.38;;
11827;SDS011;5971;49.646;8.568;2023-09-19T00:46:18;4.30;;;1.88;;
11827;SDS011;5971;49.646;8.568;2023-09-19T00:49:20;4.68;;;2.15;;
11827;SDS011;5971;49.646;8.568;2023-09-19T00:52:23;2.60;;;1.23;;
11827;SDS011;5971;49.646;8.568;2023-09-19T00:55:25;3.45;;;1.67;;
11827;SDS011;5971;49.646;8.568;2023-09-19T00:58:27;2.70;;;1.33;;
11827;SDS011;5971;49.646;8.568;2023-09-19T01:01:33;2.83;;;1.20;;
11827;SDS011;5971;49.646;8.568;2023-09-19T01:04:35;4.65;;;1.63;;
11827;SDS011;5971;49.646;8.568;2023-09-19T01:07:37;2.17;;;1.23;;
11827;SDS011;5971;49.646;8.568;2023-09-19T01:11:18;4.65;;;1.70;;
11827;SDS011;5971;49.646;8.568;2023-09-19T01:17:32;2.92;;;1.50;;
11827;SDS011;5971;49.646;8.568;2023-09-19T01:20:45;3.50;;;1.85;;
11827;SDS011;5971;49.646;8.568;2023-09-19T01:27:06;3.58;;;1.38;;
11827;SDS011;5971;49.646;8.568;2023-09-19T01:30:10;3.50;;;1.50;;
11827;SDS011;5971;49.646;8.568;2023-09-19T01:33:12;4.15;;;1.98;;
11827;SDS011;5971;49.646;8.568;2023-09-19T01:36:15;3.33;;;2.05;;
11827;SDS011;5971;49.646;8.568;2023-09-19T01:39:17;5.03;;;1.55;;
11827;SDS011;5971;49.646;8.568;2023-09-19T01:51:32;4.57;;;1.42;;
11827;SDS011;5971;49.646;8.568;2023-09-19T01:54:36;4.38;;;1.60;;
11827;SDS011;5971;49.646;8.568;2023-09-19T01:57:43;4.13;;;1.73;;
11827;SDS011;5971;49.646;8.568;2023-09-19T02:00:49;3.67;;;2.38;;
11827;SDS011;5971;49.646;8.568;2023-09-19T02:06:54;2.90;;;1.92;;
11827;SDS011;5971;49.646;8.568;2023-09-19T02:09:56;4.10;;;1.42;;
11827;SDS011;5971;49.646;8.568;2023-09-19T02:13:00;3.78;;;1.27;;
11827;SDS011;5971;49.646;8.568;2023-09-19T02:16:01;4.00;;;2.13;;
11827;SDS011;5971;49.646;8.568;2023-09-19T02:19:05;3.78;;;2.20;;
11827;SDS011;5971;49.646;8.568;2023-09-19T02:22:07;2.97;;;1.83;;
11827;SDS011;5971;49.646;8.568;2023-09-19T02:25:11;3.63;;;1.70;;
11827;SDS011;5971;49.646;8.568;2023-09-19T02:28:15;2.90;;;1.73;;
11827;SDS011;5971;49.646;8.568;2023-09-19T02:31:19;5.10;;;1.88;;
11827;SDS011;5971;49.646;8.568;2023-09-19T02:34:21;3.72;;;2.30;;
11827;SDS011;5971;49.646;8.568;2023-09-19T02:37:22;6.15;;;2.15;;
11827;SDS011;5971;49.646;8.568;2023-09-19T02:40:24;3.78;;;2.30;;
11827;SDS011;5971;49.646;8.568;2023-09-19T02:43:27;3.53;;;2.03;;
11827;SDS011;5971;49.646;8.568;2023-09-19T02:46:28;3.83;;;2.47;;
11827;SDS011;5971;49.646;8.568;2023-09-19T02:49:30;5.47;;;2.80;;
11827;SDS011;5971;49.646;8.568;2023-09-19T02:52:31;4.63;;;2.20;;
11827;SDS011;5971;49.646;8.568;2023-09-19T02:55:33;5.10;;;2.50;;
11827;SDS011;5971;49.646;8.568;2023-09-19T02:58:35;5.82;;;2.70;;
11827;SDS011;5971;49.646;8.568;2023-09-19T03:01:37;4.85;;;2.75;;
11827;SDS011;5971;49.646;8.568;2023-09-19T03:04:39;5.60;;;3.33;;
11827;SDS011;5971;49.646;8.568;2023-09-19T03:07:40;5.60;;;2.75;;
11827;SDS011;5971;49.646;8.568;2023-09-19T03:10:47;6.03;;;3.80;;
11827;SDS011;5971;49.646;8.568;2023-09-19T03:13:52;4.25;;;2.83;;
11827;SDS011;5971;49.646;8.568;2023-09-19T03:16:54;6.70;;;2.83;;
11827;SDS011;5971;49.646;8.568;2023-09-19T03:19:55;6.53;;;3.50;;
11827;SDS011;5971;49.646;8.568;2023-09-19T03:22:58;6.28;;;3.60;;
11827;SDS011;5971;49.646;8.568;2023-09-19T03:26:00;5.68;;;3.40;;
11827;SDS011;5971;49.646;8.568;2023-09-19T03:29:07;8.40;;;3.28;;
11827;SDS011;5971;49.646;8.568;2023-09-19T03:32:11;6.80;;;3.42;;
11827;SDS011;5971;49.646;8.568;2023-09-19T03:35:12;4.63;;;3.58;;
11827;SDS011;5971;49.646;8.568;2023-09-19T03:38:15;4.47;;;2.72;;
11827;SDS011;5971;49.646;8.568;2023-09-19T03:41:17;5.88;;;3.63;;
11827;SDS011;5971;49.646;8.568;2023-09-19T03:44:18;6.43;;;3.10;;
11827;SDS011;5971;49.646;8.568;2023-09-19T03:47:20;7.68;;;4.05;;
11827;SDS011;5971;49.646;8.568;2023-09-19T03:50:21;6.70;;;3.63;;
11827;SDS011;5971;49.646;8.568;2023-09-19T03:53:23;7.38;;;4.00;;
11827;SDS011;5971;49.646;8.568;2023-09-19T03:56:24;7.22;;;3.58;;
11827;SDS011;5971;49.646;8.568;2023-09-19T03:59:28;6.72;;;4.30;;
11827;SDS011;5971;49.646;8.568;2023-09-19T04:02:30;7.07;;;3.65;;
11827;SDS011;5971;49.646;8.568;2023-09-19T04:05:34;8.20;;;3.90;;
11827;SDS011;5971;49.646;8.568;2023-09-19T04:08:35;7.85;;;4.00;;
11827;SDS011;5971;49.646;8.568;2023-09-19T04:11:37;5.53;;;3.90;;
11827;SDS011;5971;49.646;8.568;2023-09-19T04:14:38;6.60;;;3.63;;
11827;SDS011;5971;49.646;8.568;2023-09-19T04:17:42;8.65;;;4.28;;
11827;SDS011;5971;49.646;8.568;2023-09-19T04:20:50;8.75;;;4.03;;
11827;SDS011;5971;49.646;8.568;2023-09-19T04:23:51;7.95;;;3.40;;
11827;SDS011;5971;49.646;8.568;2023-09-19T04:26:53;10.00;;;4.32;;
11827;SDS011;5971;49.646;8.568;2023-09-19T04:29:54;8.35;;;4.75;;
11827;SDS011;5971;49.646;8.568;2023-09-19T04:33:00;10.95;;;5.75;;
11827;SDS011;5971;49.646;8.568;2023-09-19T04:36:04;7.65;;;4.53;;
11827;SDS011;5971;49.646;8.568;2023-09-19T04:39:28;9.27;;;4.32;;
11827;SDS011;5971;49.646;8.568;2023-09-19T04:42:29;11.70;;;5.70;;
11827;SDS011;5971;49.646;8.568;2023-09-19T04:45:31;7.82;;;4.78;;
11827;SDS011;5971;49.646;8.568;2023-09-19T04:48:32;9.07;;;5.15;;
11827;SDS011;5971;49.646;8.568;2023-09-19T04:51:35;8.93;;;5.70;;
11827;SDS011;5971;49.646;8.568;2023-09-19T04:54:37;9.65;;;5.25;;
11827;SDS011;5971;49.646;8.568;2023-09-19T04:57:39;8.48;;;5.03;;
11827;SDS011;5971;49.646;8.568;2023-09-19T05:00:41;10.05;;;4.53;;
11827;SDS011;5971;49.646;8.568;2023-09-19T05:03:42;9.55;;;5.03;;
11827;SDS011;5971;49.646;8.568;2023-09-19T05:06:43;11.30;;;5.22;;
11827;SDS011;5971;49.646;8.568;2023-09-19T05:09:47;11.23;;;5.53;;
11827;SDS011;5971;49.646;8.568;2023-09-19T05:12:48;9.77;;;5.68;;
11827;SDS011;5971;49.646;8.568;2023-09-19T05:15:53;12.45;;;5.63;;
11827;SDS011;5971;49.646;8.568;2023-09-19T05:18:55;10.32;;;6.03;;
11827;SDS011;5971;49.646;8.568;2023-09-19T05:21:56;10.52;;;4.97;;
11827;SDS011;5971;49.646;8.568;2023-09-19T05:24:57;11.05;;;5.32;;
11827;SDS011;5971;49.646;8.568;2023-09-19T05:27:59;9.05;;;5.80;;
11827;SDS011;5971;49.646;8.568;2023-09-19T05:31:01;9.77;;;4.63;;
11827;SDS011;5971;49.646;8.568;2023-09-19T05:34:06;9.38;;;5.85;;
11827;SDS011;5971;49.646;8.568;2023-09-19T05:37:07;9.70;;;5.43;;
11827;SDS011;5971;49.646;8.568;2023-09-19T05:40:09;9.32;;;5.45;;
11827;SDS011;5971;49.646;8.568;2023-09-19T05:43:11;8.90;;;4.80;;
11827;SDS011;5971;49.646;8.568;2023-09-19T05:46:13;9.43;;;5.47;;
11827;SDS011;5971;49.646;8.568;2023-09-19T05:49:14;9.98;;;5.28;;
11827;SDS011;5971;49.646;8.568;2023-09-19T05:52:17;10.57;;;5.38;;
11827;SDS011;5971;49.646;8.568;2023-09-19T05:55:19;11.27;;;5.50;;
11827;SDS011;5971;49.646;8.568;2023-09-19T05:58:22;12.70;;;5.40;;
11827;SDS011;5971;49.646;8.568;2023-09-19T06:01:23;10.88;;;5.68;;
11827;SDS011;5971;49.646;8.568;2023-09-19T06:04:24;9.93;;;5.82;;
11827;SDS011;5971;49.646;8.568;2023-09-19T06:07:26;11.38;;;6.05;;
11827;SDS011;5971;49.646;8.568;2023-09-19T06:10:37;8.50;;;4.72;;
11827;SDS011;5971;49.646;8.568;2023-09-19T06:13:44;9.35;;;6.22;;
11827;SDS011;5971;49.646;8.568;2023-09-19T06:16:51;8.27;;;4.40;;
11827;SDS011;5971;49.646;8.568;2023-09-19T06:19:55;7.75;;;4.05;;
11827;SDS011;5971;49.646;8.568;2023-09-19T06:22:57;7.15;;;3.88;;
11827;SDS011;5971;49.646;8.568;2023-09-19T06:25:58;8.40;;;4.65;;
11827;SDS011;5971;49.646;8.568;2023-09-19T06:29:00;8.50;;;4.13;;
11827;SDS011;5971;49.646;8.568;2023-09-19T06:32:01;9.32;;;4.50;;
11827;SDS011;5971;49.646;8.568;2023-09-19T06:35:03;8.23;;;3.47;;
11827;SDS011;5971;49.646;8.568;2023-09-19T06:38:08;5.45;;;3.13;;
11827;SDS011;5971;49.646;8.568;2023-09-19T06:41:09;6.18;;;3.10;;
11827;SDS011;5971;49.646;8.568;2023-09-19T06:44:11;6.22;;;3.58;;
11827;SDS011;5971;49.646;8.568;2023-09-19T06:47:12;6.70;;;3.67;;
11827;SDS011;5971;49.646;8.568;2023-09-19T06:50:14;7.28;;;3.20;;
11827;SDS011;5971;49.646;8.568;2023-09-19T06:53:15;5.85;;;3.30;;
11827;SDS011;5971;49.646;8.568;2023-09-19T06:56:17;5.05;;;3.22;;
11827;SDS011;5971;49.646;8.568;2023-09-19T06:59:18;5.72;;;2.85;;
11827;SDS011;5971;49.646;8.568;2023-09-19T07:02:20;5.28;;;2.40;;
11827;SDS011;5971;49.646;8.568;2023-09-19T07:05:23;5.30;;;3.08;;
11827;SDS011;5971;49.646;8.568;2023-09-19T07:08:24;4.35;;;2.45;;
11827;SDS011;5971;49.646;8.568;2023-09-19T07:11:26;6.53;;;2.85;;
11827;SDS011;5971;49.646;8.568;2023-09-19T07:14:27;5.47;;;2.40;;
11827;SDS011;5971;49.646;8.568;2023-09-19T07:17:31;4.53;;;2.20;;
11827;SDS011;5971;49.646;8.568;2023-09-19T07:20:34;4.95;;;2.20;;
11827;SDS011;5971;49.646;8.568;2023-09-19T07:23:39;4.60;;;2.42;;
11827;SDS011;5971;49.646;8.568;2023-09-19T07:26:53;3.40;;;2.25;;
11827;SDS011;5971;49.646;8.568;2023-09-19T07:29:57;5.68;;;2.67;;
11827;SDS011;5971;49.646;8.568;2023-09-19T07:33:01;7.80;;;2.22;;
11827;SDS011;5971;49.646;8.568;2023-09-19T07:36:05;3.92;;;2.10;;
11827;SDS011;5971;49.646;8.568;2023-09-19T07:39:07;5.00;;;2.72;;
11827;SDS011;5971;49.646;8.568;2023-09-19T07:42:22;4.28;;;1.95;;
11827;SDS011;5971;49.646;8.568;2023-09-19T07:45:27;4.60;;;2.10;;
11827;SDS011;5971;49.646;8.568;2023-09-19T07:48:29;4.38;;;3.45;;
11827;SDS011;5971;49.646;8.568;2023-09-19T07:51:30;5.13;;;1.95;;
11827;SDS011;5971;49.646;8.568;2023-09-19T07:54:31;3.67;;;1.90;;
11827;SDS011;5971;49.646;8.568;2023-09-19T07:57:37;3.65;;;1.95;;
11827;SDS011;5971;49.646;8.568;2023-09-19T08:00:40;3.95;;;1.98;;
11827;SDS011;5971;49.646;8.568;2023-09-19T08:03:44;5.10;;;2.17;;
11827;SDS011;5971;49.646;8.568;2023-09-19T08:06:49;4.20;;;2.22;;
11827;SDS011;5971;49.646;8.568;2023-09-19T08:12:55;4.50;;;2.10;;
11827;SDS011;5971;49.646;8.568;2023-09-19T08:15:59;4.18;;;2.20;;
11827;SDS011;5971;49.646;8.568;2023-09-19T08:19:04;4.78;;;2.22;;
11827;SDS011;5971;49.646;8.568;2023-09-19T08:22:06;4.03;;;2.40;;
11827;SDS011;5971;49.646;8.568;2023-09-19T08:25:11;6.40;;;2.40;;
11827;SDS011;5971;49.646;8.568;2023-09-19T08:28:15;4.25;;;2.20;;
11827;SDS011;5971;49.646;8.568;2023-09-19T08:31:19;3.40;;;1.80;;
11827;SDS011;5971;49.646;8.568;2023-09-19T08:42:22;3.88;;;2.22;;
11827;SDS011;5971;49.646;8.568;2023-09-19T08:45:29;5.20;;;2.28;;
11827;SDS011;5971;49.646;8.568;2023-09-19T08:48:33;3.95;;;1.95;;
11827;SDS011;5971;49.646;8.568;2023-09-19T08:51:42;3.70;;;1.83;;
11827;SDS011;5971;49.646;8.568;2023-09-19T08:54:45;6.07;;;2.00;;
11827;SDS011;5971;49.646;8.568;2023-09-19T08:57:51;3.83;;;2.30;;
11827;SDS011;5971;49.646;8.568;2023-09-19T09:00:54;4.43;;;2.00;;
11827;SDS011;5971;49.646;8.568;2023-09-19T09:03:56;4.88;;;1.92;;
11827;SDS011;5971;49.646;8.568;2023-09-19T09:06:58;4.20;;;1.90;;
11827;SDS011;5971;49.646;8.568;2023-09-19T09:10:00;2.88;;;1.73;;
11827;SDS011;5971;49.646;8.568;2023-09-19T09:13:01;5.55;;;1.70;;
11827;SDS011;5971;49.646;8.568;2023-09-19T09:16:04;4.85;;;1.40;;
11827;SDS011;5971;49.646;8.568;2023-09-19T09:19:05;3.17;;;1.75;;
11827;SDS011;5971;49.646;8.568;2023-09-19T09:22:07;3.75;;;1.80;;
11827;SDS011;5971;49.646;8.568;2023-09-19T09:25:09;4.18;;;1.70;;
11827;SDS011;5971;49.646;8.568;2023-09-19T09:28:10;5.90;;;2.05;;
11827;SDS011;5971;49.646;8.568;2023-09-19T09:31:24;4.22;;;1.60;;
11827;SDS011;5971;49.646;8.568;2023-09-19T09:34:32;4.35;;;1.77;;
11827;SDS011;5971;49.646;8.568;2023-09-19T09:37:34;4.07;;;1.60;;
11827;SDS011;5971;49.646;8.568;2023-09-19T09:40:45;5.15;;;1.95;;
11827;SDS011;5971;49.646;8.568;2023-09-19T09:43:48;3.70;;;1.67;;
11827;SDS011;5971;49.646;8.568;2023-09-19T09:46:50;3.92;;;2.20;;
11827;SDS011;5971;49.646;8.568;2023-09-19T09:49:51;4.35;;;1.98;;
11827;SDS011;5971;49.646;8.568;2023-09-19T09:52:56;3.53;;;1.65;;
11827;SDS011;5971;49.646;8.568;2023-09-19T09:56:09;4.10;;;1.95;;
11827;SDS011;5971;49.646;8.568;2023-09-19T09:59:12;3.55;;;1.60;;
11827;SDS011;5971;49.646;8.568;2023-09-19T10:02:28;4.38;;;1.88;;
11827;SDS011;5971;49.646;8.568;2023-09-19T10:05:32;5.05;;;2.22;;
11827;SDS011;5971;49.646;8.568;2023-09-19T10:08:38;4.55;;;2.63;;
11827;SDS011;5971;49.646;8.568;2023-09-19T10:11:41;4.40;;;1.80;;
11827;SDS011;5971;49.646;8.568;2023-09-19T10:14:45;5.57;;;1.80;;
11827;SDS011;5971;49.646;8.568;2023-09-19T10:17:48;4.05;;;2.22;;
11827;SDS011;5971;49.646;8.568;2023-09-19T10:20:50;4.00;;;2.28;;
11827;SDS011;5971;49.646;8.568;2023-09-19T10:23:52;4.03;;;1.88;;
11827;SDS011;5971;49.646;8.568;2023-09-19T10:26:59;2.75;;;1.50;;
11827;SDS011;5971;49.646;8.568;2023-09-19T10:30:00;4.35;;;1.45;;
11827;SDS011;5971;49.646;8.568;2023-09-19T10:33:03;2.95;;;1.40;;
11827;SDS011;5971;49.646;8.568;2023-09-19T10:36:05;3.38;;;1.50;;
11827;SDS011;5971;49.646;8.568;2023-09-19T10:39:10;3.42;;;1.85;;
11827;SDS011;5971;49.646;8.568;2023-09-19T10:42:18;3.85;;;1.80;;
11827;SDS011;5971;49.646;8.568;2023-09-19T10:45:20;4.82;;;2.03;;
11827;SDS011;5971;49.646;8.568;2023-09-19T10:48:23;4.13;;;1.83;;
11827;SDS011;5971;49.646;8.568;2023-09-19T10:51:29;4.18;;;1.70;;
11827;SDS011;5971;49.646;8.568;2023-09-19T10:54:33;4.38;;;1.40;;
11827;SDS011;5971;49.646;8.568;2023-09-19T10:57:38;4.40;;;1.73;;
11827;SDS011;5971;49.646;8.568;2023-09-19T11:00:57;3.55;;;1.70;;
11827;SDS011;5971;49.646;8.568;2023-09-19T11:04:24;4.20;;;1.60;;
11827;SDS011;5971;49.646;8.568;2023-09-19T11:07:26;4.78;;;2.13;;
11827;SDS011;5971;49.646;8.568;2023-09-19T11:14:13;4.05;;;1.70;;
11827;SDS011;5971;49.646;8.568;2023-09-19T11:20:19;3.90;;;2.05;;
11827;SDS011;5971;49.646;8.568;2023-09-19T11:23:25;4.18;;;1.80;;
11827;SDS011;5971;49.646;8.568;2023-09-19T11:26:44;4.82;;;1.90;;
11827;SDS011;5971;49.646;8.568;2023-09-19T11:29:49;4.15;;;1.90;;
11827;SDS011;5971;49.646;8.568;2023-09-19T11:33:24;4.18;;;2.00;;
11827;SDS011;5971;49.646;8.568;2023-09-19T11:36:35;4.80;;;2.08;;
11827;SDS011;5971;49.646;8.568;2023-09-19T11:39:37;3.20;;;2.22;;
11827;SDS011;5971;49.646;8.568;2023-09-19T11:42:50;3.42;;;1.90;;
11827;SDS011;5971;49.646;8.568;2023-09-19T11:49:08;3.20;;;1.75;;
11827;SDS011;5971;49.646;8.568;2023-09-19T11:52:11;3.20;;;1.73;;
11827;SDS011;5971;49.646;8.568;2023-09-19T11:55:13;3.58;;;1.83;;
11827;SDS011;5971;49.646;8.568;2023-09-19T11:58:17;6.22;;;2.15;;
11827;SDS011;5971;49.646;8.568;2023-09-19T12:01:23;3.72;;;1.88;;
11827;SDS011;5971;49.646;8.568;2023-09-19T12:04:33;4.07;;;1.95;;
11827;SDS011;5971;49.646;8.568;2023-09-19T12:07:42;4.43;;;1.80;;
11827;SDS011;5971;49.646;8.568;2023-09-19T12:10:47;3.58;;;1.95;;
11827;SDS011;5971;49.646;8.568;2023-09-19T12:13:49;3.08;;;1.80;;
11827;SDS011;5971;49.646;8.568;2023-09-19T12:16:53;2.65;;;1.58;;
11827;SDS011;5971;49.646;8.568;2023-09-19T12:19:57;3.75;;;1.95;;
11827;SDS011;5971;49.646;8.568;2023-09-19T12:22:58;4.28;;;1.40;;
11827;SDS011;5971;49.646;8.568;2023-09-19T12:26:01;3.25;;;1.70;;
11827;SDS011;5971;49.646;8.568;2023-09-19T12:29:03;2.53;;;1.42;;
11827;SDS011;5971;49.646;8.568;2023-09-19T12:32:06;2.97;;;1.58;;
11827;SDS011;5971;49.646;8.568;2023-09-19T12:35:08;3.13;;;1.60;;
11827;SDS011;5971;49.646;8.568;2023-09-19T12:38:13;3.55;;;1.73;;
11827;SDS011;5971;49.646;8.568;2023-09-19T12:41:25;3.00;;;1.17;;
11827;SDS011;5971;49.646;8.568;2023-09-19T12:44:26;3.63;;;1.40;;
11827;SDS011;5971;49.646;8.568;2023-09-19T12:47:28;3.53;;;1.40;;
11827;SDS011;5971;49.646;8.568;2023-09-19T12:50:30;3.72;;;1.48;;
11827;SDS011;5971;49.646;8.568;2023-09-19T12:53:34;3.13;;;1.67;;
11827;SDS011;5971;49.646;8.568;2023-09-19T12:56:42;2.30;;;1.20;;
11827;SDS011;5971;49.646;8.568;2023-09-19T12:59:46;3.67;;;1.70;;
11827;SDS011;5971;49.646;8.568;2023-09-19T13:06:08;2.40;;;1.30;;
11827;SDS011;5971;49.646;8.568;2023-09-19T13:09:11;4.15;;;2.00;;
11827;SDS011;5971;49.646;8.568;2023-09-19T13:15:33;2.60;;;1.30;;
11827;SDS011;5971;49.646;8.568;2023-09-19T13:18:53;2.95;;;1.35;;
11827;SDS011;5971;49.646;8.568;2023-09-19T13:21:55;3.15;;;1.63;;
11827;SDS011;5971;49.646;8.568;2023-09-19T13:24:58;2.97;;;1.27;;
11827;SDS011;5971;49.646;8.568;2023-09-19T13:28:00;3.42;;;1.75;;
11827;SDS011;5971;49.646;8.568;2023-09-19T13:31:05;2.92;;;1.55;;
11827;SDS011;5971;49.646;8.568;2023-09-19T13:34:07;3.38;;;1.73;;
11827;SDS011;5971;49.646;8.568;2023-09-19T13:37:08;2.70;;;1.30;;
11827;SDS011;5971;49.646;8.568;2023-09-19T13:40:11;3.38;;;1.60;;
11827;SDS011;5971;49.646;8.568;2023-09-19T13:43:13;4.25;;;1.88;;
11827;SDS011;5971;49.646;8.568;2023-09-19T13:46:15;2.97;;;1.35;;
11827;SDS011;5971;49.646;8.568;2023-09-19T13:49:17;3.25;;;1.60;;
11827;SDS011;5971;49.646;8.568;2023-09-19T13:52:21;2.90;;;1.52;;
11827;SDS011;5971;49.646;8.568;2023-09-19T13:55:24;3.20;;;1.50;;
11827;SDS011;5971;49.646;8.568;2023-09-19T13:58:26;3.55;;;1.20;;
11827;SDS011;5971;49.646;8.568;2023-09-19T14:01:28;3.25;;;1.50;;
11827;SDS011;5971;49.646;8.568;2023-09-19T14:04:29;3.88;;;1.92;;
11827;SDS011;5971;49.646;8.568;2023-09-19T14:07:32;2.65;;;1.48;;
11827;SDS011;5971;49.646;8.568;2023-09-19T14:10:34;3.97;;;1.40;;
11827;SDS011;5971;49.646;8.568;2023-09-19T14:13:35;3.47;;;1.77;;
11827;SDS011;5971;49.646;8.568;2023-09-19T14:16:37;5.53;;;1.88;;
11827;SDS011;5971;49.646;8.568;2023-09-19T14:19:40;2.28;;;1.42;;
11827;SDS011;5971;49.646;8.568;2023-09-19T14:22:46;2.63;;;1.50;;
11827;SDS011;5971;49.646;8.568;2023-09-19T14:25:47;2.55;;;1.40;;
11827;SDS011;5971;49.646;8.568;2023-09-19T14:28:49;2.97;;;1.40;;
11827;SDS011;5971;49.646;8.568;2023-09-19T14:31:50;3.53;;;1.50;;
11827;SDS011;5971;49.646;8.568;2023-09-19T14:34:53;3.70;;;1.20;;
11827;SDS011;5971;49.646;8.568;2023-09-19T14:37:54;3.38;;;1.73;;
11827;SDS011;5971;49.646;8.568;2023-09-19T14:40:59;3.40;;;1.40;;
11827;SDS011;5971;49.646;8.568;2023-09-19T14:44:02;2.15;;;1.30;;
11827;SDS011;5971;49.646;8.568;2023-09-19T14:47:04;3.05;;;1.42;;
11827;SDS011;5971;49.646;8.568;2023-09-19T14:50:09;2.20;;;1.35;;
11827;SDS011;5971;49.646;8.568;2023-09-19T14:53:10;2.30;;;1.33;;
11827;SDS011;5971;49.646;8.568;2023-09-19T14:56:13;2.58;;;1.60;;
11827;SDS011;5971;49.646;8.568;2023-09-19T14:59:19;2.80;;;1.30;;
11827;SDS011;5971;49.646;8.568;2023-09-19T15:02:21;2.92;;;1.33;;
11827;SDS011;5971;49.646;8.568;2023-09-19T15:05:23;3.95;;;1.80;;
11827;SDS011;5971;49.646;8.568;2023-09-19T15:08:25;2.50;;;1.48;;
11827;SDS011;5971;49.646;8.568;2023-09-19T15:11:27;2.47;;;1.20;;
11827;SDS011;5971;49.646;8.568;2023-09-19T15:14:29;2.35;;;1.42;;
11827;SDS011;5971;49.646;8.568;2023-09-19T15:17:33;3.28;;;1.77;;
11827;SDS011;5971;49.646;8.568;2023-09-19T15:20:35;2.78;;;1.30;;
11827;SDS011;5971;49.646;8.568;2023-09-19T15:23:38;3.33;;;1.35;;
11827;SDS011;5971;49.646;8.568;2023-09-19T15:26:40;2.78;;;1.60;;
11827;SDS011;5971;49.646;8.568;2023-09-19T15:29:41;3.53;;;1.63;;
11827;SDS011;5971;49.646;8.568;2023-09-19T15:32:43;3.55;;;1.75;;
11827;SDS011;5971;49.646;8.568;2023-09-19T15:35:44;4.00;;;2.60;;
11827;SDS011;5971;49.646;8.568;2023-09-19T15:38:59;2.80;;;1.83;;
11827;SDS011;5971;49.646;8.568;2023-09-19T15:42:01;3.75;;;2.05;;
11827;SDS011;5971;49.646;8.568;2023-09-19T15:45:02;2.65;;;1.23;;
11827;SDS011;5971;49.646;8.568;2023-09-19T15:48:04;3.13;;;1.70;;
11827;SDS011;5971;49.646;8.568;2023-09-19T15:51:06;2.85;;;1.55;;
11827;SDS011;5971;49.646;8.568;2023-09-19T15:54:09;4.05;;;1.30;;
11827;SDS011;5971;49.646;8.568;2023-09-19T15:57:10;3.30;;;1.30;;
11827;SDS011;5971;49.646;8.568;2023-09-19T16:00:14;3.03;;;1.40;;
11827;SDS011;5971;49.646;8.568;2023-09-19T16:03:18;6.18;;;1.75;;
11827;SDS011;5971;49.646;8.568;2023-09-19T16:06:20;3.88;;;1.10;;
11827;SDS011;5971;49.646;8.568;2023-09-19T16:09:24;2.58;;;1.45;;
11827;SDS011;5971;49.646;8.568;2023-09-19T16:12:25;3.95;;;2.15;;
11827;SDS011;5971;49.646;8.568;2023-09-19T16:15:27;1.92;;;1.30;;
11827;SDS011;5971;49.646;8.568;2023-09-19T16:18:28;3.05;;;1.23;;
11827;SDS011;5971;49.646;8.568;2023-09-19T16:21:30;2.05;;;1.02;;
11827;SDS011;5971;49.646;8.568;2023-09-19T16:24:33;2.95;;;1.80;;
11827;SDS011;5971;49.646;8.568;2023-09-19T16:27:35;2.33;;;1.20;;
11827;SDS011;5971;49.646;8.568;2023-09-19T16:30:37;3.67;;;1.67;;
11827;SDS011;5971;49.646;8.568;2023-09-19T16:33:40;3.10;;;1.85;;
11827;SDS011;5971;49.646;8.568;2023-09-19T16:36:42;2.38;;;1.10;;
11827;SDS011;5971;49.646;8.568;2023-09-19T16:39:43;3.22;;;2.00;;
11827;SDS011;5971;49.646;8.568;2023-09-19T16:42:45;4.00;;;1.80;;
11827;SDS011;5971;49.646;8.568;2023-09-19T16:46:20;2.95;;;1.30;;
11827;SDS011;5971;49.646;8.568;2023-09-19T16:49:14;3.33;;;1.67;;
11827;SDS011;5971;49.646;8.568;2023-09-19T16:52:17;2.90;;;1.92;;
11827;SDS011;5971;49.646;8.568;2023-09-19T16:55:18;4.13;;;2.00;;
11827;SDS011;5971;49.646;8.568;2023-09-19T16:58:22;2.53;;;1.85;;
11827;SDS011;5971;49.646;8.568;2023-09-19T17:01:23;4.03;;;2.20;;
11827;SDS011;5971;49.646;8.568;2023-09-19T17:04:26;3.90;;;1.92;;
11827;SDS011;5971;49.646;8.568;2023-09-19T17:07:28;2.97;;;1.98;;
11827;SDS011;5971;49.646;8.568;2023-09-19T17:10:29;2.80;;;1.80;;
11827;SDS011;5971;49.646;8.568;2023-09-19T17:13:32;2.67;;;1.70;;
11827;SDS011;5971;49.646;8.568;2023-09-19T17:16:34;3.42;;;1.88;;
11827;SDS011;5971;49.646;8.568;2023-09-19T17:19:36;4.78;;;2.05;;
11827;SDS011;5971;49.646;8.568;2023-09-19T17:22:37;2.95;;;1.73;;
11827;SDS011;5971;49.646;8.568;2023-09-19T17:25:38;4.07;;;1.65;;
11827;SDS011;5971;49.646;8.568;2023-09-19T17:28:40;2.78;;;1.45;;
11827;SDS011;5971;49.646;8.568;2023-09-19T17:31:45;2.35;;;1.50;;
11827;SDS011;5971;49.646;8.568;2023-09-19T17:34:47;2.78;;;1.52;;
11827;SDS011;5971;49.646;8.568;2023-09-19T17:37:50;3.63;;;1.90;;
11827;SDS011;5971;49.646;8.568;2023-09-19T17:40:53;2.75;;;1.58;;
11827;SDS011;5971;49.646;8.568;2023-09-19T17:43:55;3.75;;;1.83;;
11827;SDS011;5971;49.646;8.568;2023-09-19T17:46:56;3.20;;;1.48;;
11827;SDS011;5971;49.646;8.568;2023-09-19T17:49:58;2.83;;;1.80;;
11827;SDS011;5971;49.646;8.568;2023-09-19T17:52:59;4.47;;;1.95;;
11827;SDS011;5971;49.646;8.568;2023-09-19T17:56:03;2.92;;;1.48;;
11827;SDS011;5971;49.646;8.568;2023-09-19T17:59:04;2.33;;;1.58;;
11827;SDS011;5971;49.646;8.568;2023-09-19T18:02:06;3.05;;;1.65;;
11827;SDS011;5971;49.646;8.568;2023-09-19T18:05:07;3.45;;;1.70;;
11827;SDS011;5971;49.646;8.568;2023-09-19T18:08:09;2.60;;;1.90;;
11827;SDS011;5971;49.646;8.568;2023-09-19T18:11:14;2.65;;;1.73;;
11827;SDS011;5971;49.646;8.568;2023-09-19T18:14:16;4.25;;;1.90;;
11827;SDS011;5971;49.646;8.568;2023-09-19T18:17:19;2.65;;;1.60;;
11827;SDS011;5971;49.646;8.568;2023-09-19T18:20:22;3.10;;;1.80;;
11827;SDS011;5971;49.646;8.568;2023-09-19T18:23:24;3.08;;;1.80;;
11827;SDS011;5971;49.646;8.568;2023-09-19T18:26:29;2.90;;;2.13;;
11827;SDS011;5971;49.646;8.568;2023-09-19T18:29:30;3.38;;;1.83;;
11827;SDS011;5971;49.646;8.568;2023-09-19T18:32:32;2.80;;;2.05;;
11827;SDS011;5971;49.646;8.568;2023-09-19T18:35:34;3.92;;;1.80;;
11827;SDS011;5971;49.646;8.568;2023-09-19T18:38:40;2.55;;;1.73;;
11827;SDS011;5971;49.646;8.568;2023-09-19T18:41:42;3.67;;;1.60;;
11827;SDS011;5971;49.646;8.568;2023-09-19T18:44:45;2.85;;;1.50;;
11827;SDS011;5971;49.646;8.568;2023-09-19T18:47:47;2.85;;;1.75;;
11827;SDS011;5971;49.646;8.568;2023-09-19T18:50:48;3.78;;;1.73;;
11827;SDS011;5971;49.646;8.568;2023-09-19T18:53:52;4.90;;;1.95;;
11827;SDS011;5971;49.646;8.568;2023-09-19T18:57:12;4.13;;;2.15;;
11827;SDS011;5971;49.646;8.568;2023-09-19T19:00:15;2.63;;;1.52;;
11827;SDS011;5971;49.646;8.568;2023-09-19T19:03:17;3.55;;;1.70;;
11827;SDS011;5971;49.646;8.568;2023-09-19T19:06:19;3.05;;;1.70;;
11827;SDS011;5971;49.646;8.568;2023-09-19T19:09:23;4.22;;;1.77;;
11827;SDS011;5971;49.646;8.568;2023-09-19T19:12:24;4.20;;;1.95;;
11827;SDS011;5971;49.646;8.568;2023-09-19T19:15:25;3.63;;;2.15;;
11827;SDS011;5971;49.646;8.568;2023-09-19T19:18:30;3.35;;;1.77;;
11827;SDS011;5971;49.646;8.568;2023-09-19T19:21:32;2.67;;;1.60;;
11827;SDS011;5971;49.646;8.568;2023-09-19T19:24:33;2.70;;;1.70;;
11827;SDS011;5971;49.646;8.568;2023-09-19T19:27:35;2.70;;;1.70;;